sensor_id;sensor_type;location;lat;lon;timestamp;noise_LAeq;noise_LA_min;noise_LA_max;noise_LA01;noise_LA95
70740;Laerm;58330;51.888;11.052;2023-01-29T00:01:51;37.42;34.24;42.39;;
70740;Laerm;58330;51.888;11.052;2023-01-29T00:04:16;35.72;34.17;37.17;;
70740;Laerm;58330;51.888;11.052;2023-01-29T00:06:42;35.75;34.03;37.43;;
70740;Laerm;58330;51.888;11.052;2023-01-29T00:09:08;35.93;34.36;39.05;;
70740;Laerm;58330;51.888;11.052;2023-01-29T00:11:33;35.89;34.23;37.39;;
70740;Laerm;58330;51.888;11.052;2023-01-29T00:13:59;36.34;34.23;42.20;;
70740;Laerm;58330;51.888;11.052;2023-01-29T00:16:24;35.78;34.33;37.55;;
70740;Laerm;58330;51.888;11.052;2023-01-29T00:18:51;36.27;34.23;39.57;;
70740;Laerm;58330;51.888;11.052;2023-01-29T00:21:17;35.98;34.36;38.37;;
70740;Laerm;58330;51.888;11.052;2023-01-29T00:23:43;35.95;34.52;37.30;;
70740;Laerm;58330;51.888;11.052;2023-01-29T00:26:09;35.88;34.15;37.40;;
70740;Laerm;58330;51.888;11.052;2023-01-29T00:28:35;37.35;34.05;46.10;;
70740;Laerm;58330;51.888;11.052;2023-01-29T00:31:05;41.07;35.57;48.69;;
70740;Laerm;58330;51.888;11.052;2023-01-29T00:33:31;42.50;36.69;47.49;;
70740;Laerm;58330;51.888;11.052;2023-01-29T00:35:57;42.37;37.03;46.48;;
70740;Laerm;58330;51.888;11.052;2023-01-29T00:38:23;42.84;36.08;47.27;;
70740;Laerm;58330;51.888;11.052;2023-01-29T00:40:48;43.14;35.59;47.32;;
70740;Laerm;58330;51.888;11.052;2023-01-29T00:43:34;38.55;34.93;47.02;;
70740;Laerm;58330;51.888;11.052;2023-01-29T00:46:18;43.68;36.00;48.56;;
70740;Laerm;58330;51.888;11.052;2023-01-29T00:48:44;41.69;35.31;48.00;;
70740;Laerm;58330;51.888;11.052;2023-01-29T00:51:10;40.43;34.60;47.39;;
70740;Laerm;58330;51.888;11.052;2023-01-29T00:53:35;53.71;35.61;89.62;;
70740;Laerm;58330;51.888;11.052;2023-01-29T00:56:01;40.20;36.13;45.38;;
70740;Laerm;58330;51.888;11.052;2023-01-29T00:58:27;39.99;36.18;47.34;;
70740;Laerm;58330;51.888;11.052;2023-01-29T01:00:58;39.35;35.12;45.48;;
70740;Laerm;58330;51.888;11.052;2023-01-29T01:03:25;37.45;34.89;44.64;;
70740;Laerm;58330;51.888;11.052;2023-01-29T01:05:50;40.16;35.96;46.93;;
70740;Laerm;58330;51.888;11.052;2023-01-29T01:08:27;40.46;36.54;47.02;;
70740;Laerm;58330;51.888;11.052;2023-01-29T01:11:10;39.80;36.08;46.23;;
70740;Laerm;58330;51.888;11.052;2023-01-29T01:13:36;39.83;36.24;46.02;;
70740;Laerm;58330;51.888;11.052;2023-01-29T01:16:07;40.03;36.55;46.36;;
70740;Laerm;58330;51.888;11.052;2023-01-29T01:18:33;40.48;36.56;45.87;;
70740;Laerm;58330;51.888;11.052;2023-01-29T01:20:58;40.22;36.30;46.79;;
70740;Laerm;58330;51.888;11.052;2023-01-29T01:23:24;40.32;35.84;45.92;;
70740;Laerm;58330;51.888;11.052;2023-01-29T01:25:50;41.13;36.72;47.14;;
70740;Laerm;58330;51.888;11.052;2023-01-29T01:28:16;39.09;35.78;45.94;;
70740;Laerm;58330;51.888;11.052;2023-01-29T01:30:42;39.54;35.25;46.42;;
70740;Laerm;58330;51.888;11.052;2023-01-29T01:33:07;40.92;35.52;48.35;;
70740;Laerm;58330;51.888;11.052;2023-01-29T01:35:33;40.93;35.86;47.68;;
70740;Laerm;58330;51.888;11.052;2023-01-29T01:37:58;40.51;35.44;48.08;;
70740;Laerm;58330;51.888;11.052;2023-01-29T01:40:24;41.26;37.03;47.34;;
70740;Laerm;58330;51.888;11.052;2023-01-29T01:42:51;40.85;35.57;47.59;;
70740;Laerm;58330;51.888;11.052;2023-01-29T01:45:18;42.28;37.69;47.72;;
70740;Laerm;58330;51.888;11.052;2023-01-29T01:47:44;42.99;38.01;48.79;;
70740;Laerm;58330;51.888;11.052;2023-01-29T01:50:11;41.86;37.16;47.78;;
70740;Laerm;58330;51.888;11.052;2023-01-29T01:52:40;41.91;36.96;48.15;;
70740;Laerm;58330;51.888;11.052;2023-01-29T01:55:07;41.66;36.96;48.29;;
70740;Laerm;58330;51.888;11.052;2023-01-29T01:57:33;41.10;36.99;49.00;;
70740;Laerm;58330;51.888;11.052;2023-01-29T02:00:03;41.05;36.71;47.81;;
70740;Laerm;58330;51.888;11.052;2023-01-29T02:02:36;41.60;36.63;48.63;;
70740;Laerm;58330;51.888;11.052;2023-01-29T02:05:20;42.05;37.35;47.55;;
70740;Laerm;58330;51.888;11.052;2023-01-29T02:08:04;41.57;37.18;48.37;;
70740;Laerm;58330;51.888;11.052;2023-01-29T02:10:48;41.40;37.13;46.86;;
70740;Laerm;58330;51.888;11.052;2023-01-29T02:13:14;41.26;36.92;47.09;;
70740;Laerm;58330;51.888;11.052;2023-01-29T02:15:42;41.70;36.95;49.07;;
70740;Laerm;58330;51.888;11.052;2023-01-29T02:18:11;41.92;37.00;47.97;;
70740;Laerm;58330;51.888;11.052;2023-01-29T02:20:36;42.08;37.03;47.41;;
70740;Laerm;58330;51.888;11.052;2023-01-29T02:23:07;41.62;37.39;48.41;;
70740;Laerm;58330;51.888;11.052;2023-01-29T02:28:28;43.27;37.04;48.75;;
70740;Laerm;58330;51.888;11.052;2023-01-29T02:30:58;43.48;38.30;48.11;;
70740;Laerm;58330;51.888;11.052;2023-01-29T02:33:29;42.73;37.53;48.62;;
70740;Laerm;58330;51.888;11.052;2023-01-29T02:35:57;41.84;37.21;47.51;;
70740;Laerm;58330;51.888;11.052;2023-01-29T02:38:26;42.13;38.00;48.83;;
70740;Laerm;58330;51.888;11.052;2023-01-29T02:40:55;43.05;37.75;49.36;;
70740;Laerm;58330;51.888;11.052;2023-01-29T02:43:26;42.73;37.93;48.52;;
70740;Laerm;58330;51.888;11.052;2023-01-29T02:45:55;42.36;37.81;49.13;;
70740;Laerm;58330;51.888;11.052;2023-01-29T02:48:24;42.58;37.92;48.02;;
70740;Laerm;58330;51.888;11.052;2023-01-29T02:50:55;42.32;37.55;48.03;;
70740;Laerm;58330;51.888;11.052;2023-01-29T02:53:24;41.86;37.37;47.94;;
70740;Laerm;58330;51.888;11.052;2023-01-29T02:55:52;40.83;37.01;47.82;;
70740;Laerm;58330;51.888;11.052;2023-01-29T02:58:20;40.93;37.63;46.88;;
70740;Laerm;58330;51.888;11.052;2023-01-29T03:00:47;41.80;37.02;48.04;;
70740;Laerm;58330;51.888;11.052;2023-01-29T03:03:15;40.91;36.66;47.75;;
70740;Laerm;58330;51.888;11.052;2023-01-29T03:05:43;40.97;36.63;48.16;;
70740;Laerm;58330;51.888;11.052;2023-01-29T03:08:15;41.75;37.40;47.11;;
70740;Laerm;58330;51.888;11.052;2023-01-29T03:10:44;41.91;37.35;48.38;;
70740;Laerm;58330;51.888;11.052;2023-01-29T03:13:12;39.54;36.98;43.60;;
70740;Laerm;58330;51.888;11.052;2023-01-29T03:15:39;39.94;37.02;45.35;;
70740;Laerm;58330;51.888;11.052;2023-01-29T03:18:07;39.56;36.61;47.36;;
70740;Laerm;58330;51.888;11.052;2023-01-29T03:20:36;39.25;36.98;44.84;;
70740;Laerm;58330;51.888;11.052;2023-01-29T03:23:05;40.48;36.16;48.19;;
70740;Laerm;58330;51.888;11.052;2023-01-29T03:25:32;39.66;36.93;45.67;;
70740;Laerm;58330;51.888;11.052;2023-01-29T03:28:17;38.96;36.76;43.36;;
70740;Laerm;58330;51.888;11.052;2023-01-29T03:31:04;38.82;36.51;42.11;;
70740;Laerm;58330;51.888;11.052;2023-01-29T03:33:50;38.82;36.45;43.30;;
70740;Laerm;58330;51.888;11.052;2023-01-29T03:36:17;38.99;36.95;43.08;;
70740;Laerm;58330;51.888;11.052;2023-01-29T03:38:46;38.76;35.99;43.75;;
70740;Laerm;58330;51.888;11.052;2023-01-29T03:41:13;38.74;36.61;43.29;;
70740;Laerm;58330;51.888;11.052;2023-01-29T03:43:44;37.96;35.77;42.12;;
70740;Laerm;58330;51.888;11.052;2023-01-29T03:46:13;37.37;35.64;40.02;;
70740;Laerm;58330;51.888;11.052;2023-01-29T03:48:44;37.29;35.48;40.44;;
70740;Laerm;58330;51.888;11.052;2023-01-29T03:51:15;37.04;34.97;38.84;;
70740;Laerm;58330;51.888;11.052;2023-01-29T03:53:47;37.62;35.21;46.47;;
70740;Laerm;58330;51.888;11.052;2023-01-29T03:56:17;36.96;35.43;38.49;;
70740;Laerm;58330;51.888;11.052;2023-01-29T03:58:46;36.98;35.46;38.63;;
70740;Laerm;58330;51.888;11.052;2023-01-29T04:01:17;36.90;35.04;38.39;;
70740;Laerm;58330;51.888;11.052;2023-01-29T04:03:46;38.09;35.46;64.12;;
70740;Laerm;58330;51.888;11.052;2023-01-29T04:06:15;36.82;35.27;38.59;;
70740;Laerm;58330;51.888;11.052;2023-01-29T04:08:43;36.85;35.36;38.30;;
70740;Laerm;58330;51.888;11.052;2023-01-29T04:11:13;36.92;35.11;38.78;;
70740;Laerm;58330;51.888;11.052;2023-01-29T04:13:39;36.80;35.29;38.54;;
70740;Laerm;58330;51.888;11.052;2023-01-29T04:16:06;36.72;35.15;38.93;;
70740;Laerm;58330;51.888;11.052;2023-01-29T04:18:34;36.74;35.08;38.47;;
70740;Laerm;58330;51.888;11.052;2023-01-29T04:21:00;36.75;35.01;38.23;;
70740;Laerm;58330;51.888;11.052;2023-01-29T04:23:26;36.83;35.29;38.62;;
70740;Laerm;58330;51.888;11.052;2023-01-29T04:25:52;36.78;35.20;38.41;;
70740;Laerm;58330;51.888;11.052;2023-01-29T04:28:25;36.71;35.14;38.85;;
70740;Laerm;58330;51.888;11.052;2023-01-29T04:30:53;36.96;35.22;38.61;;
70740;Laerm;58330;51.888;11.052;2023-01-29T04:33:21;36.87;35.38;38.49;;
70740;Laerm;58330;51.888;11.052;2023-01-29T04:35:54;36.81;35.11;38.16;;
70740;Laerm;58330;51.888;11.052;2023-01-29T04:38:27;36.86;35.17;38.27;;
70740;Laerm;58330;51.888;11.052;2023-01-29T04:40:58;37.04;35.28;39.01;;
70740;Laerm;58330;51.888;11.052;2023-01-29T04:43:29;37.13;35.36;38.94;;
70740;Laerm;58330;51.888;11.052;2023-01-29T04:46:02;37.14;35.37;38.92;;
70740;Laerm;58330;51.888;11.052;2023-01-29T04:48:32;39.83;35.70;48.31;;
70740;Laerm;58330;51.888;11.052;2023-01-29T04:51:03;37.10;35.60;38.60;;
70740;Laerm;58330;51.888;11.052;2023-01-29T04:53:34;37.25;35.62;39.66;;
70740;Laerm;58330;51.888;11.052;2023-01-29T04:56:04;37.39;35.65;39.54;;
70740;Laerm;58330;51.888;11.052;2023-01-29T04:58:32;37.28;35.69;38.70;;
70740;Laerm;58330;51.888;11.052;2023-01-29T05:01:00;37.27;35.59;39.80;;
70740;Laerm;58330;51.888;11.052;2023-01-29T05:03:27;37.43;35.57;40.15;;
70740;Laerm;58330;51.888;11.052;2023-01-29T05:05:54;37.31;35.82;38.89;;
70740;Laerm;58330;51.888;11.052;2023-01-29T05:08:21;37.66;35.93;44.44;;
70740;Laerm;58330;51.888;11.052;2023-01-29T05:10:49;37.40;35.65;39.06;;
70740;Laerm;58330;51.888;11.052;2023-01-29T05:13:15;37.59;35.77;39.25;;
70740;Laerm;58330;51.888;11.052;2023-01-29T05:15:45;37.59;36.21;39.16;;
70740;Laerm;58330;51.888;11.052;2023-01-29T05:18:12;37.51;36.05;39.00;;
70740;Laerm;58330;51.888;11.052;2023-01-29T05:20:38;37.52;35.94;39.19;;
70740;Laerm;58330;51.888;11.052;2023-01-29T05:23:07;37.31;35.76;38.78;;
70740;Laerm;58330;51.888;11.052;2023-01-29T05:25:34;37.33;35.90;38.72;;
70740;Laerm;58330;51.888;11.052;2023-01-29T05:27:59;38.59;35.81;46.40;;
70740;Laerm;58330;51.888;11.052;2023-01-29T05:30:31;37.22;35.48;38.97;;
70740;Laerm;58330;51.888;11.052;2023-01-29T05:32:58;37.16;35.77;39.02;;
70740;Laerm;58330;51.888;11.052;2023-01-29T05:35:27;39.37;35.80;46.30;;
70740;Laerm;58330;51.888;11.052;2023-01-29T05:37:53;37.35;35.56;44.04;;
70740;Laerm;58330;51.888;11.052;2023-01-29T05:40:18;37.14;35.55;41.41;;
70740;Laerm;58330;51.888;11.052;2023-01-29T05:42:44;37.08;35.42;38.77;;
70740;Laerm;58330;51.888;11.052;2023-01-29T05:45:09;37.08;35.25;38.55;;
70740;Laerm;58330;51.888;11.052;2023-01-29T05:47:35;37.12;35.53;38.65;;
70740;Laerm;58330;51.888;11.052;2023-01-29T05:50:01;37.07;35.25;39.18;;
70740;Laerm;58330;51.888;11.052;2023-01-29T05:52:27;37.57;35.64;43.59;;
70740;Laerm;58330;51.888;11.052;2023-01-29T05:54:53;37.34;35.75;38.84;;
70740;Laerm;58330;51.888;11.052;2023-01-29T05:57:18;37.50;35.72;39.13;;
70740;Laerm;58330;51.888;11.052;2023-01-29T05:59:44;37.82;36.18;42.29;;
70740;Laerm;58330;51.888;11.052;2023-01-29T06:02:09;38.34;35.96;46.51;;
70740;Laerm;58330;51.888;11.052;2023-01-29T06:04:35;39.94;36.10;48.66;;
70740;Laerm;58330;51.888;11.052;2023-01-29T06:07:02;40.76;36.11;48.16;;
70740;Laerm;58330;51.888;11.052;2023-01-29T06:09:29;37.64;36.10;40.33;;
70740;Laerm;58330;51.888;11.052;2023-01-29T06:11:54;39.20;36.18;47.15;;
70740;Laerm;58330;51.888;11.052;2023-01-29T06:14:20;39.83;36.04;46.95;;
70740;Laerm;58330;51.888;11.052;2023-01-29T06:16:46;37.60;36.04;39.39;;
70740;Laerm;58330;51.888;11.052;2023-01-29T06:19:11;42.41;36.57;49.60;;
70740;Laerm;58330;51.888;11.052;2023-01-29T06:21:37;42.82;37.49;48.17;;
70740;Laerm;58330;51.888;11.052;2023-01-29T06:24:07;43.20;37.30;48.06;;
70740;Laerm;58330;51.888;11.052;2023-01-29T06:26:32;42.44;37.30;48.01;;
70740;Laerm;58330;51.888;11.052;2023-01-29T06:28:58;40.42;35.84;48.23;;
70740;Laerm;58330;51.888;11.052;2023-01-29T06:31:24;37.42;35.83;40.44;;
70740;Laerm;58330;51.888;11.052;2023-01-29T06:33:49;37.25;35.65;38.61;;
70740;Laerm;58330;51.888;11.052;2023-01-29T06:36:15;37.28;35.83;38.99;;
70740;Laerm;58330;51.888;11.052;2023-01-29T06:38:40;37.30;35.59;38.70;;
70740;Laerm;58330;51.888;11.052;2023-01-29T06:41:08;37.22;35.38;38.71;;
70740;Laerm;58330;51.888;11.052;2023-01-29T06:43:34;37.27;35.54;39.78;;
70740;Laerm;58330;51.888;11.052;2023-01-29T06:45:59;37.50;35.66;41.10;;
70740;Laerm;58330;51.888;11.052;2023-01-29T06:48:25;37.80;35.59;42.65;;
70740;Laerm;58330;51.888;11.052;2023-01-29T06:50:51;37.57;35.59;40.79;;
70740;Laerm;58330;51.888;11.052;2023-01-29T06:53:19;39.42;35.65;46.98;;
70740;Laerm;58330;51.888;11.052;2023-01-29T06:55:49;41.63;35.87;49.09;;
70740;Laerm;58330;51.888;11.052;2023-01-29T06:58:16;39.38;35.59;47.56;;
70740;Laerm;58330;51.888;11.052;2023-01-29T07:00:41;37.26;35.44;38.87;;
70740;Laerm;58330;51.888;11.052;2023-01-29T07:03:08;37.51;35.46;40.12;;
70740;Laerm;58330;51.888;11.052;2023-01-29T07:05:34;37.65;35.91;43.43;;
70740;Laerm;58330;51.888;11.052;2023-01-29T07:07:59;37.39;35.88;39.08;;
70740;Laerm;58330;51.888;11.052;2023-01-29T07:10:25;38.18;35.90;46.08;;
70740;Laerm;58330;51.888;11.052;2023-01-29T07:12:51;37.70;35.64;45.78;;
70740;Laerm;58330;51.888;11.052;2023-01-29T07:15:17;39.50;35.97;47.33;;
70740;Laerm;58330;51.888;11.052;2023-01-29T07:17:54;39.55;35.77;46.87;;
70740;Laerm;58330;51.888;11.052;2023-01-29T07:20:19;37.74;35.44;43.34;;
70740;Laerm;58330;51.888;11.052;2023-01-29T07:22:45;38.00;35.42;46.36;;
70740;Laerm;58330;51.888;11.052;2023-01-29T07:25:11;40.51;36.31;50.05;;
70740;Laerm;58330;51.888;11.052;2023-01-29T07:27:36;41.11;36.66;48.43;;
70740;Laerm;58330;51.888;11.052;2023-01-29T07:30:02;40.19;36.07;46.19;;
70740;Laerm;58330;51.888;11.052;2023-01-29T07:32:28;40.65;35.66;47.89;;
70740;Laerm;58330;51.888;11.052;2023-01-29T07:34:54;37.39;35.74;39.70;;
70740;Laerm;58330;51.888;11.052;2023-01-29T07:37:20;39.92;35.56;47.04;;
70740;Laerm;58330;51.888;11.052;2023-01-29T07:39:45;41.47;36.93;47.57;;
70740;Laerm;58330;51.888;11.052;2023-01-29T07:42:11;40.09;35.99;46.25;;
70740;Laerm;58330;51.888;11.052;2023-01-29T07:44:37;37.65;35.89;39.98;;
70740;Laerm;58330;51.888;11.052;2023-01-29T07:47:03;37.46;35.79;39.88;;
70740;Laerm;58330;51.888;11.052;2023-01-29T07:49:29;37.49;35.70;40.54;;
70740;Laerm;58330;51.888;11.052;2023-01-29T07:51:54;37.32;35.51;40.26;;
70740;Laerm;58330;51.888;11.052;2023-01-29T07:54:20;38.25;35.50;48.19;;
70740;Laerm;58330;51.888;11.052;2023-01-29T07:56:46;37.36;35.65;42.93;;
70740;Laerm;58330;51.888;11.052;2023-01-29T07:59:11;37.15;35.59;39.10;;
70740;Laerm;58330;51.888;11.052;2023-01-29T08:01:37;37.13;35.32;39.71;;
70740;Laerm;58330;51.888;11.052;2023-01-29T08:04:02;37.24;35.25;44.80;;
70740;Laerm;58330;51.888;11.052;2023-01-29T08:06:28;37.01;35.06;39.81;;
70740;Laerm;58330;51.888;11.052;2023-01-29T08:08:54;36.97;35.45;38.64;;
70740;Laerm;58330;51.888;11.052;2023-01-29T08:11:21;36.97;35.31;40.49;;
70740;Laerm;58330;51.888;11.052;2023-01-29T08:13:47;36.96;35.47;38.84;;
70740;Laerm;58330;51.888;11.052;2023-01-29T08:16:12;37.00;35.48;38.88;;
70740;Laerm;58330;51.888;11.052;2023-01-29T08:18:38;37.23;35.49;39.74;;
70740;Laerm;58330;51.888;11.052;2023-01-29T08:21:06;37.36;35.16;40.61;;
70740;Laerm;58330;51.888;11.052;2023-01-29T08:23:32;37.57;35.77;44.85;;
70740;Laerm;58330;51.888;11.052;2023-01-29T08:25:58;37.50;35.85;39.80;;
70740;Laerm;58330;51.888;11.052;2023-01-29T08:28:23;37.36;35.79;38.84;;
70740;Laerm;58330;51.888;11.052;2023-01-29T08:30:49;37.60;35.85;41.66;;
70740;Laerm;58330;51.888;11.052;2023-01-29T08:33:14;37.52;35.84;45.02;;
70740;Laerm;58330;51.888;11.052;2023-01-29T08:35:40;37.46;35.57;40.88;;
70740;Laerm;58330;51.888;11.052;2023-01-29T08:38:06;37.28;35.53;39.97;;
70740;Laerm;58330;51.888;11.052;2023-01-29T08:40:32;37.44;35.76;41.85;;
70740;Laerm;58330;51.888;11.052;2023-01-29T08:42:58;37.70;35.67;45.93;;
70740;Laerm;58330;51.888;11.052;2023-01-29T08:45:23;37.24;35.60;38.81;;
70740;Laerm;58330;51.888;11.052;2023-01-29T08:47:49;37.72;35.71;47.10;;
70740;Laerm;58330;51.888;11.052;2023-01-29T08:50:15;37.65;36.03;42.05;;
70740;Laerm;58330;51.888;11.052;2023-01-29T08:52:41;37.44;35.76;40.84;;
70740;Laerm;58330;51.888;11.052;2023-01-29T08:55:06;37.35;35.41;40.25;;
70740;Laerm;58330;51.888;11.052;2023-01-29T08:57:33;37.16;35.34;46.37;;
70740;Laerm;58330;51.888;11.052;2023-01-29T08:59:58;37.66;35.15;50.69;;
70740;Laerm;58330;51.888;11.052;2023-01-29T09:02:24;37.13;35.18;43.54;;
70740;Laerm;58330;51.888;11.052;2023-01-29T09:04:50;37.10;35.00;45.23;;
70740;Laerm;58330;51.888;11.052;2023-01-29T09:07:15;36.38;34.87;39.45;;
70740;Laerm;58330;51.888;11.052;2023-01-29T09:09:41;36.71;34.78;44.70;;
70740;Laerm;58330;51.888;11.052;2023-01-29T09:12:07;36.13;34.56;37.89;;
70740;Laerm;58330;51.888;11.052;2023-01-29T09:14:33;36.81;34.63;43.06;;
70740;Laerm;58330;51.888;11.052;2023-01-29T09:16:58;35.95;34.35;41.11;;
70740;Laerm;58330;51.888;11.052;2023-01-29T09:19:24;36.02;34.30;43.09;;
70740;Laerm;58330;51.888;11.052;2023-01-29T09:21:49;36.19;34.34;45.34;;
70740;Laerm;58330;51.888;11.052;2023-01-29T09:24:15;36.12;34.31;44.16;;
70740;Laerm;58330;51.888;11.052;2023-01-29T09:26:41;35.76;33.94;42.08;;
70740;Laerm;58330;51.888;11.052;2023-01-29T09:29:07;35.99;34.44;41.89;;
70740;Laerm;58330;51.888;11.052;2023-01-29T09:31:34;36.64;34.29;43.12;;
70740;Laerm;58330;51.888;11.052;2023-01-29T09:34:00;36.67;34.27;45.20;;
70740;Laerm;58330;51.888;11.052;2023-01-29T09:36:25;35.70;34.10;37.70;;
70740;Laerm;58330;51.888;11.052;2023-01-29T09:38:51;36.01;33.66;42.78;;
70740;Laerm;58330;51.888;11.052;2023-01-29T09:41:21;35.50;34.10;37.02;;
70740;Laerm;58330;51.888;11.052;2023-01-29T09:43:52;35.68;33.76;57.50;;
70740;Laerm;58330;51.888;11.052;2023-01-29T09:46:20;35.76;33.73;43.87;;
70740;Laerm;58330;51.888;11.052;2023-01-29T09:48:47;35.43;33.87;37.21;;
70740;Laerm;58330;51.888;11.052;2023-01-29T09:51:19;35.78;33.77;48.33;;
70740;Laerm;58330;51.888;11.052;2023-01-29T09:53:50;35.81;33.70;44.88;;
70740;Laerm;58330;51.888;11.052;2023-01-29T09:56:19;36.10;34.01;42.90;;
70740;Laerm;58330;51.888;11.052;2023-01-29T09:58:45;36.11;33.82;43.03;;
70740;Laerm;58330;51.888;11.052;2023-01-29T10:01:12;35.53;33.85;40.42;;
70740;Laerm;58330;51.888;11.052;2023-01-29T10:03:44;35.64;33.91;39.49;;
70740;Laerm;58330;51.888;11.052;2023-01-29T10:06:21;35.59;33.90;40.43;;
70740;Laerm;58330;51.888;11.052;2023-01-29T10:09:04;36.25;33.83;53.99;;
70740;Laerm;58330;51.888;11.052;2023-01-29T10:11:37;35.66;33.94;42.44;;
70740;Laerm;58330;51.888;11.052;2023-01-29T10:14:10;36.46;34.04;48.22;;
70740;Laerm;58330;51.888;11.052;2023-01-29T10:16:42;37.06;34.26;47.51;;
70740;Laerm;58330;51.888;11.052;2023-01-29T10:22:13;37.20;34.02;44.58;;
70740;Laerm;58330;51.888;11.052;2023-01-29T10:24:45;35.71;33.59;41.33;;
70740;Laerm;58330;51.888;11.052;2023-01-29T10:27:16;35.28;33.40;38.08;;
70740;Laerm;58330;51.888;11.052;2023-01-29T10:29:42;35.16;33.62;37.99;;
70740;Laerm;58330;51.888;11.052;2023-01-29T10:32:11;35.09;33.74;39.56;;
70740;Laerm;58330;51.888;11.052;2023-01-29T10:34:39;36.55;33.47;44.30;;
70740;Laerm;58330;51.888;11.052;2023-01-29T10:37:11;35.54;33.57;40.91;;
70740;Laerm;58330;51.888;11.052;2023-01-29T10:39:39;36.43;33.57;47.33;;
70740;Laerm;58330;51.888;11.052;2023-01-29T10:42:08;35.73;33.75;40.80;;
70740;Laerm;58330;51.888;11.052;2023-01-29T10:44:43;37.28;33.62;51.46;;
70740;Laerm;58330;51.888;11.052;2023-01-29T10:47:19;35.36;33.68;39.20;;
70740;Laerm;58330;51.888;11.052;2023-01-29T10:49:54;36.65;33.98;46.25;;
70740;Laerm;58330;51.888;11.052;2023-01-29T10:52:28;35.78;33.65;44.20;;
70740;Laerm;58330;51.888;11.052;2023-01-29T10:55:01;36.12;33.57;42.18;;
70740;Laerm;58330;51.888;11.052;2023-01-29T10:57:35;36.89;33.21;45.26;;
70740;Laerm;58330;51.888;11.052;2023-01-29T11:00:07;35.12;33.22;37.86;;
70740;Laerm;58330;51.888;11.052;2023-01-29T11:02:41;34.98;33.41;40.38;;
70740;Laerm;58330;51.888;11.052;2023-01-29T11:05:08;36.84;33.22;45.26;;
70740;Laerm;58330;51.888;11.052;2023-01-29T11:07:39;35.52;33.21;44.09;;
70740;Laerm;58330;51.888;11.052;2023-01-29T11:10:06;35.44;33.20;43.45;;
70740;Laerm;58330;51.888;11.052;2023-01-29T11:12:34;35.19;33.34;40.77;;
70740;Laerm;58330;51.888;11.052;2023-01-29T11:15:04;35.48;33.11;43.39;;
70740;Laerm;58330;51.888;11.052;2023-01-29T11:17:30;35.85;33.16;46.26;;
70740;Laerm;58330;51.888;11.052;2023-01-29T11:19:56;35.02;33.23;38.70;;
70740;Laerm;58330;51.888;11.052;2023-01-29T11:22:22;35.22;33.37;42.78;;
70740;Laerm;58330;51.888;11.052;2023-01-29T11:27:31;36.24;33.28;46.82;;
70740;Laerm;58330;51.888;11.052;2023-01-29T11:29:59;35.00;33.20;37.05;;
70740;Laerm;58330;51.888;11.052;2023-01-29T11:32:26;34.81;32.90;37.20;;
70740;Laerm;58330;51.888;11.052;2023-01-29T11:34:56;35.31;33.26;42.71;;
70740;Laerm;58330;51.888;11.052;2023-01-29T11:37:22;34.77;33.17;37.23;;
70740;Laerm;58330;51.888;11.052;2023-01-29T11:39:51;34.78;33.12;37.87;;
70740;Laerm;58330;51.888;11.052;2023-01-29T11:42:18;36.51;33.21;46.58;;
70740;Laerm;58330;51.888;11.052;2023-01-29T11:44:44;36.08;33.11;47.64;;
70740;Laerm;58330;51.888;11.052;2023-01-29T11:47:11;35.59;33.06;44.19;;
70740;Laerm;58330;51.888;11.052;2023-01-29T11:49:43;34.76;33.11;37.30;;
70740;Laerm;58330;51.888;11.052;2023-01-29T11:52:09;39.28;33.11;57.48;;
70740;Laerm;58330;51.888;11.052;2023-01-29T11:54:37;36.27;33.56;45.85;;
70740;Laerm;58330;51.888;11.052;2023-01-29T11:57:03;35.65;33.33;45.85;;
70740;Laerm;58330;51.888;11.052;2023-01-29T11:59:35;36.83;33.42;50.24;;
70740;Laerm;58330;51.888;11.052;2023-01-29T12:02:03;34.93;33.27;37.60;;
70740;Laerm;58330;51.888;11.052;2023-01-29T12:04:30;35.00;33.12;38.23;;
70740;Laerm;58330;51.888;11.052;2023-01-29T12:06:56;34.99;33.23;38.49;;
70740;Laerm;58330;51.888;11.052;2023-01-29T12:09:22;36.58;33.55;48.17;;
70740;Laerm;58330;51.888;11.052;2023-01-29T12:11:48;35.06;33.38;41.48;;
70740;Laerm;58330;51.888;11.052;2023-01-29T12:14:23;35.51;33.42;42.95;;
70740;Laerm;58330;51.888;11.052;2023-01-29T12:16:51;35.07;33.06;37.47;;
70740;Laerm;58330;51.888;11.052;2023-01-29T12:19:24;36.55;33.23;47.42;;
70740;Laerm;58330;51.888;11.052;2023-01-29T12:21:51;35.25;33.31;37.02;;
70740;Laerm;58330;51.888;11.052;2023-01-29T12:24:24;37.31;33.49;50.42;;
70740;Laerm;58330;51.888;11.052;2023-01-29T12:26:54;35.79;33.36;42.80;;
70740;Laerm;58330;51.888;11.052;2023-01-29T12:29:24;34.83;33.17;37.00;;
70740;Laerm;58330;51.888;11.052;2023-01-29T12:31:54;35.92;33.38;45.42;;
70740;Laerm;58330;51.888;11.052;2023-01-29T12:34:26;36.00;33.34;44.25;;
70740;Laerm;58330;51.888;11.052;2023-01-29T12:36:55;34.83;33.33;37.45;;
70740;Laerm;58330;51.888;11.052;2023-01-29T12:39:25;35.70;33.17;47.40;;
70740;Laerm;58330;51.888;11.052;2023-01-29T12:41:52;34.97;33.51;36.65;;
70740;Laerm;58330;51.888;11.052;2023-01-29T12:44:20;36.77;33.23;45.68;;
70740;Laerm;58330;51.888;11.052;2023-01-29T12:46:49;34.93;33.33;38.31;;
70740;Laerm;58330;51.888;11.052;2023-01-29T12:49:17;36.56;33.33;47.81;;
70740;Laerm;58330;51.888;11.052;2023-01-29T12:51:48;34.96;33.51;38.26;;
70740;Laerm;58330;51.888;11.052;2023-01-29T12:54:16;35.15;32.98;42.12;;
70740;Laerm;58330;51.888;11.052;2023-01-29T12:56:45;36.95;33.52;47.00;;
70740;Laerm;58330;51.888;11.052;2023-01-29T12:59:13;35.13;33.34;39.07;;
70740;Laerm;58330;51.888;11.052;2023-01-29T13:01:43;35.16;33.28;42.26;;
70740;Laerm;58330;51.888;11.052;2023-01-29T13:04:10;35.13;33.53;36.91;;
70740;Laerm;58330;51.888;11.052;2023-01-29T13:06:39;35.18;33.53;37.95;;
70740;Laerm;58330;51.888;11.052;2023-01-29T13:09:08;36.64;33.37;44.74;;
70740;Laerm;58330;51.888;11.052;2023-01-29T13:11:38;36.65;33.43;51.54;;
70740;Laerm;58330;51.888;11.052;2023-01-29T13:14:05;37.37;33.49;44.76;;
70740;Laerm;58330;51.888;11.052;2023-01-29T13:16:35;35.58;33.36;43.93;;
70740;Laerm;58330;51.888;11.052;2023-01-29T13:19:02;35.80;33.23;44.74;;
70740;Laerm;58330;51.888;11.052;2023-01-29T13:21:32;34.73;32.97;36.42;;
70740;Laerm;58330;51.888;11.052;2023-01-29T13:24:01;37.21;33.32;47.43;;
70740;Laerm;58330;51.888;11.052;2023-01-29T13:26:28;35.89;33.55;42.71;;
70740;Laerm;58330;51.888;11.052;2023-01-29T13:28:54;35.00;33.41;36.99;;
70740;Laerm;58330;51.888;11.052;2023-01-29T13:31:22;35.74;33.31;43.23;;
70740;Laerm;58330;51.888;11.052;2023-01-29T13:33:51;35.86;33.48;44.99;;
70740;Laerm;58330;51.888;11.052;2023-01-29T13:36:19;35.41;33.36;39.92;;
70740;Laerm;58330;51.888;11.052;2023-01-29T13:38:47;36.43;33.26;48.83;;
70740;Laerm;58330;51.888;11.052;2023-01-29T13:41:18;37.12;33.96;46.24;;
70740;Laerm;58330;51.888;11.052;2023-01-29T13:43:47;35.57;33.51;39.10;;
70740;Laerm;58330;51.888;11.052;2023-01-29T13:46:15;37.38;33.52;49.03;;